Vojens, Denmark
Current Conditions -  °F | °C
As of 2:50 AM on Thursday 23 Oct 2014 (Local Time) from EKSP Reporting Station
Broken Clouds Broken Clouds  
Wind Chill: 50°   Ceiling: 3200
Heat Index: 50°   Visibility: 6mi
Dew Point: 46°   Wind: 5mph
Humidity: 87%   Direction: 280°W
Pressure: 30.03"   Gusts: NA
Location:  55.25°N, 9.31°E
Report Text: EKSP 230050Z 28004KT 9999 BKN032 10/08 Q1017
Loading
Personal Weather Stations






























Interactive Weather Map
Tropical Storm Tracking
New forecast layout! Learn more

10-Day Weather Forecast

Advertisements
Track Severe Weather on mobile